Time;durP1;ratioP1;P1;durP2;ratioP2;P2;SDS_P1;SDS_P2;PMS_P1;PMS_P2;Temp;Humidity;BMP_temperature;BMP_pressure;BME280_temperature;BME280_humidity;BME280_pressure;Samples;Min_cycle;Max_cycle;Signal;HPM_P1;HPM_P2
2023/09/15 00:02:18;;;;;;;0.00;0.00;;;13.60;99.90;;;;;;5094949;28;20176;-76
2023/09/15 00:04:46;;;;;;;0.00;0.00;;;13.60;99.90;;;;;;5093363;28;20176;-77
2023/09/15 00:07:14;;;;;;;0.00;0.00;;;13.60;99.90;;;;;;5094163;28;20187;-76
2023/09/15 00:09:41;;;;;;;0.00;0.00;;;13.50;99.90;;;;;;5095114;28;20259;-76
2023/09/15 00:12:07;;;;;;;0.00;0.00;;;13.40;99.90;;;;;;5094473;28;20220;-76
2023/09/15 00:14:34;;;;;;;0.00;0.00;;;13.40;99.90;;;;;;5094629;28;20203;-76
2023/09/15 00:17:00;;;;;;;0.00;0.00;;;13.40;99.90;;;;;;5094462;28;20195;-76
2023/09/15 00:19:26;;;;;;;0.00;0.00;;;13.30;99.90;;;;;;5094438;28;20176;-77
2023/09/15 00:21:52;;;;;;;0.00;0.00;;;13.30;99.90;;;;;;5093762;28;20180;-75
2023/09/15 00:24:17;;;;;;;0.00;0.00;;;13.20;99.90;;;;;;5094229;28;20222;-76
2023/09/15 00:26:43;;;;;;;0.05;0.05;;;13.20;99.90;;;;;;5094085;28;20184;-77
2023/09/15 00:29:09;;;;;;;0.00;0.00;;;13.20;99.90;;;;;;5094168;28;20180;-76
2023/09/15 00:31:35;;;;;;;0.00;0.00;;;13.20;99.90;;;;;;5093941;28;20228;-76
2023/09/15 00:34:00;;;;;;;0.00;0.00;;;13.20;99.90;;;;;;5093634;28;20643;-76
2023/09/15 00:36:26;;;;;;;0.00;0.00;;;13.10;99.90;;;;;;5093931;28;20187;-76
2023/09/15 00:38:51;;;;;;;0.03;0.03;;;13.10;99.90;;;;;;5093894;28;20172;-76
2023/09/15 00:41:18;;;;;;;0.00;0.00;;;13.10;99.90;;;;;;5093914;28;20192;-76
2023/09/15 00:43:43;;;;;;;0.00;0.00;;;13.10;99.90;;;;;;5093855;28;20230;-77
2023/09/15 00:46:10;;;;;;;0.00;0.00;;;13.10;99.90;;;;;;5093611;28;20184;-77
2023/09/15 00:48:40;;;;;;;0.00;0.00;;;13.00;99.90;;;;;;5093561;28;20179;-77
2023/09/15 00:51:07;;;;;;;0.00;0.00;;;13.00;99.90;;;;;;5093527;28;20674;-77
2023/09/15 00:53:35;;;;;;;0.00;0.00;;;13.00;99.90;;;;;;5093823;28;20745;-76
2023/09/15 00:56:01;;;;;;;0.00;0.00;;;13.00;99.90;;;;;;5092069;28;20270;-76
2023/09/15 00:58:27;;;;;;;0.20;0.20;;;13.00;99.90;;;;;;5093733;28;20222;-76
2023/09/15 01:00:53;;;;;;;0.00;0.00;;;13.00;99.90;;;;;;5093695;28;20184;-75
2023/09/15 01:03:21;;;;;;;0.00;0.00;;;13.00;99.90;;;;;;5092955;28;20519;-76
2023/09/15 01:05:46;;;;;;;0.00;0.00;;;13.00;99.90;;;;;;5093265;28;20176;-76
2023/09/15 01:08:12;;;;;;;0.00;0.00;;;13.00;99.90;;;;;;5093144;28;20176;-76
2023/09/15 01:10:38;;;;;;;0.00;0.00;;;12.90;99.90;;;;;;5093673;28;20210;-76
2023/09/15 01:13:04;;;;;;;0.00;0.00;;;12.90;99.90;;;;;;5093323;28;20208;-76
2023/09/15 01:16:09;;;;;;;0.00;0.00;;;12.90;99.90;;;;;;5093100;28;20199;-76
2023/09/15 01:19:03;;;;;;;0.00;0.00;;;12.90;99.90;;;;;;5090866;28;20271;-76
2023/09/15 01:21:59;;;;;;;0.00;0.00;;;12.90;99.90;;;;;;5093458;28;20176;-77
2023/09/15 01:24:41;;;;;;;0.00;0.00;;;12.80;99.90;;;;;;5077250;28;20261;-77
2023/09/15 01:27:25;;;;;;;0.00;0.00;;;12.80;99.90;;;;;;5092868;28;20647;-78
2023/09/15 01:29:56;;;;;;;0.00;0.00;;;12.80;99.90;;;;;;5088914;28;20186;-76
2023/09/15 01:32:22;;;;;;;0.00;0.00;;;12.80;99.90;;;;;;5092714;28;20280;-77
2023/09/15 01:34:50;;;;;;;0.00;0.00;;;12.70;99.90;;;;;;5093096;28;20179;-78
2023/09/15 01:37:16;;;;;;;0.00;0.00;;;12.80;99.90;;;;;;5092996;28;20252;-78
2023/09/15 01:39:42;;;;;;;0.20;0.20;;;12.80;99.90;;;;;;5092822;28;20250;-78
2023/09/15 01:42:08;;;;;;;0.00;0.00;;;12.70;99.90;;;;;;5092590;28;20257;-76
2023/09/15 01:44:33;;;;;;;0.00;0.00;;;12.80;99.90;;;;;;5092762;28;20226;-76
2023/09/15 01:46:59;;;;;;;0.00;0.00;;;12.70;99.90;;;;;;5092761;28;20290;-76
2023/09/15 01:49:26;;;;;;;0.00;0.00;;;12.80;99.90;;;;;;5092408;28;20217;-76
2023/09/15 01:51:52;;;;;;;0.00;0.00;;;12.70;99.90;;;;;;5092330;28;20211;-74
2023/09/15 01:54:18;;;;;;;0.00;0.00;;;12.70;99.90;;;;;;5092234;28;20184;-77
2023/09/15 01:56:45;;;;;;;0.00;0.00;;;12.70;99.90;;;;;;5092601;28;20180;-77
2023/09/15 01:59:12;;;;;;;0.00;0.00;;;12.70;99.90;;;;;;5092533;28;20285;-77
2023/09/15 02:01:37;;;;;;;0.00;0.00;;;12.70;99.90;;;;;;5092418;28;20184;-76
2023/09/15 02:04:03;;;;;;;0.00;0.00;;;12.70;99.90;;;;;;5091954;28;20187;-78
2023/09/15 02:06:29;;;;;;;0.00;0.00;;;12.70;99.90;;;;;;5076729;28;20178;-77
2023/09/15 02:08:54;;;;;;;0.00;0.00;;;12.70;99.90;;;;;;5092114;28;20253;-76
2023/09/15 02:11:20;;;;;;;0.00;0.00;;;12.60;99.90;;;;;;5092061;28;20250;-76
2023/09/15 02:13:45;;;;;;;0.00;0.00;;;12.60;99.90;;;;;;5092092;28;20218;-76
2023/09/15 02:16:11;;;;;;;0.00;0.00;;;12.60;99.90;;;;;;5091228;28;20182;-78
2023/09/15 02:18:37;;;;;;;0.00;0.00;;;12.60;99.90;;;;;;5091947;28;20263;-76
2023/09/15 02:21:03;;;;;;;0.00;0.00;;;12.50;99.90;;;;;;5091885;28;20180;-77
2023/09/15 02:23:29;;;;;;;0.00;0.00;;;12.50;99.90;;;;;;5091738;28;20233;-77
2023/09/15 02:25:55;;;;;;;0.10;0.10;;;12.50;99.90;;;;;;5091936;28;20191;-77
2023/09/15 02:28:21;;;;;;;0.00;0.00;;;12.50;99.90;;;;;;5091619;28;20168;-77
2023/09/15 02:30:47;;;;;;;0.00;0.00;;;12.50;99.90;;;;;;5091322;28;20231;-77
2023/09/15 02:33:12;;;;;;;0.00;0.00;;;12.50;99.90;;;;;;5091620;28;20221;-77
2023/09/15 02:35:38;;;;;;;0.00;0.00;;;12.50;99.90;;;;;;5091945;28;20194;-78
2023/09/15 02:38:03;;;;;;;0.00;0.00;;;12.50;99.90;;;;;;5091171;28;20191;-78
2023/09/15 02:40:30;;;;;;;0.00;0.00;;;12.50;99.90;;;;;;5091547;28;20179;-78
2023/09/15 02:42:56;;;;;;;0.00;0.00;;;12.50;99.90;;;;;;5091191;28;20222;-77
2023/09/15 02:45:21;;;;;;;0.00;0.00;;;12.50;99.90;;;;;;5091483;28;20203;-76
2023/09/15 02:47:47;;;;;;;0.20;0.20;;;12.50;99.90;;;;;;5091684;28;20172;-77
2023/09/15 02:50:12;;;;;;;0.00;0.00;;;12.50;99.90;;;;;;5091126;28;20281;-77
2023/09/15 02:52:38;;;;;;;0.00;0.00;;;12.50;99.90;;;;;;5091678;28;20697;-77
2023/09/15 02:55:05;;;;;;;0.00;0.00;;;12.50;99.90;;;;;;5091245;28;20176;-78
2023/09/15 02:57:30;;;;;;;0.00;0.00;;;12.60;99.90;;;;;;5091293;28;20172;-76
2023/09/15 02:59:56;;;;;;;0.10;0.10;;;12.60;99.90;;;;;;5091314;28;20191;-77
2023/09/15 03:02:21;;;;;;;0.00;0.00;;;12.60;99.90;;;;;;5091380;28;20187;-77
2023/09/15 03:04:47;;;;;;;0.00;0.00;;;12.50;99.90;;;;;;5091379;28;20172;-76
2023/09/15 03:07:13;;;;;;;0.10;0.10;;;12.60;99.90;;;;;;5092230;28;20697;-78
2023/09/15 03:09:39;;;;;;;0.00;0.00;;;12.50;99.90;;;;;;5112000;28;20182;-78
2023/09/15 03:12:05;;;;;;;0.00;0.00;;;12.50;99.90;;;;;;5103730;28;20294;-77
2023/09/15 03:14:31;;;;;;;0.10;0.10;;;12.60;99.90;;;;;;5091611;28;20255;-80
2023/09/15 03:16:56;;;;;;;0.00;0.00;;;12.60;99.90;;;;;;5089855;28;20222;-80
2023/09/15 03:19:22;;;;;;;0.00;0.00;;;12.60;99.90;;;;;;5091414;28;20463;-78
2023/09/15 03:21:48;;;;;;;0.00;0.00;;;12.60;99.90;;;;;;5090980;28;20169;-78
2023/09/15 03:24:13;;;;;;;0.00;0.00;;;12.60;99.90;;;;;;5091291;28;20180;-79
2023/09/15 03:26:40;;;;;;;0.00;0.00;;;12.60;99.90;;;;;;5091455;28;20172;-80
2023/09/15 03:29:06;;;;;;;0.00;0.00;;;12.60;99.90;;;;;;5091393;28;20195;-77
2023/09/15 03:31:32;;;;;;;0.00;0.00;;;12.60;99.90;;;;;;5091117;28;20236;-77
2023/09/15 03:33:58;;;;;;;0.00;0.00;;;12.60;99.90;;;;;;5091132;28;20183;-77
2023/09/15 03:36:26;;;;;;;0.00;0.00;;;12.60;99.90;;;;;;5091155;28;20211;-78
2023/09/15 03:38:52;;;;;;;0.00;0.00;;;12.60;99.90;;;;;;5092094;28;20184;-75
2023/09/15 03:41:17;;;;;;;0.00;0.00;;;12.60;99.90;;;;;;5092096;28;20186;-74
2023/09/15 03:43:43;;;;;;;0.00;0.00;;;12.60;99.90;;;;;;5091805;28;20168;-74
2023/09/15 03:46:09;;;;;;;0.00;0.00;;;12.60;99.90;;;;;;5091555;28;20180;-76
2023/09/15 03:48:34;;;;;;;0.10;0.03;;;12.60;99.90;;;;;;5090701;28;20176;-75
2023/09/15 03:51:00;;;;;;;0.00;0.00;;;12.60;99.90;;;;;;5090008;28;20204;-72
2023/09/15 03:53:26;;;;;;;0.00;0.00;;;12.60;99.90;;;;;;5090884;28;20184;-72
2023/09/15 03:55:52;;;;;;;0.00;0.00;;;12.60;99.90;;;;;;5091043;28;20176;-72
2023/09/15 03:58:17;;;;;;;0.00;0.00;;;12.60;99.90;;;;;;5090783;28;20172;-73
2023/09/15 04:00:43;;;;;;;0.00;0.00;;;12.60;99.90;;;;;;5090850;28;20194;-70
2023/09/15 04:03:09;;;;;;;0.00;0.00;;;12.60;99.90;;;;;;5090460;28;20180;-72
2023/09/15 04:05:34;;;;;;;0.00;0.00;;;12.60;99.90;;;;;;5090811;28;20176;-75
2023/09/15 04:08:00;;;;;;;0.00;0.00;;;12.60;99.90;;;;;;5090736;28;20180;-75
2023/09/15 04:10:26;;;;;;;0.00;0.00;;;12.60;99.90;;;;;;5090665;28;20255;-69
2023/09/15 04:12:51;;;;;;;0.00;0.00;;;12.60;99.90;;;;;;5090987;28;20172;-73
2023/09/15 04:15:17;;;;;;;0.00;0.00;;;12.60;99.90;;;;;;5090507;28;20195;-69
2023/09/15 04:17:43;;;;;;;0.00;0.00;;;12.60;99.90;;;;;;5090961;28;20177;-70
2023/09/15 04:20:09;;;;;;;0.00;0.00;;;12.60;99.90;;;;;;5090792;28;20666;-68
2023/09/15 04:22:39;;;;;;;0.00;0.00;;;12.60;99.90;;;;;;5090813;28;20179;-69
2023/09/15 04:25:06;;;;;;;0.20;0.20;;;12.60;99.90;;;;;;5090409;28;20611;-69
2023/09/15 04:27:32;;;;;;;0.00;0.00;;;12.60;99.90;;;;;;5091129;28;20624;-69
2023/09/15 04:29:58;;;;;;;0.00;0.00;;;12.60;99.90;;;;;;5090660;28;20271;-68
2023/09/15 04:32:23;;;;;;;0.00;0.00;;;12.60;99.90;;;;;;5090881;28;20298;-68
2023/09/15 04:34:50;;;;;;;0.00;0.00;;;12.60;99.90;;;;;;5090715;28;20214;-67
2023/09/15 04:37:16;;;;;;;0.00;0.00;;;12.50;99.90;;;;;;5090513;28;20184;-67
2023/09/15 04:39:41;;;;;;;0.00;0.00;;;12.50;99.90;;;;;;5093870;28;20181;-67
2023/09/15 04:42:09;;;;;;;0.00;0.00;;;12.50;99.90;;;;;;5094359;28;20180;-67
2023/09/15 04:44:34;;;;;;;0.00;0.00;;;12.40;99.90;;;;;;5093915;28;20180;-67
2023/09/15 04:47:00;;;;;;;0.00;0.00;;;12.40;99.90;;;;;;5094301;28;20168;-67
2023/09/15 04:49:25;;;;;;;0.00;0.00;;;12.40;99.90;;;;;;5093982;28;20191;-67
2023/09/15 04:51:51;;;;;;;0.00;0.00;;;12.40;99.90;;;;;;5093812;28;20223;-67
2023/09/15 04:54:16;;;;;;;0.00;0.00;;;12.40;99.90;;;;;;5094277;28;20191;-67
2023/09/15 04:56:42;;;;;;;0.00;0.00;;;12.40;99.90;;;;;;5094504;28;20265;-68
2023/09/15 04:59:15;;;;;;;0.00;0.00;;;12.40;99.90;;;;;;5094148;28;20241;-68
2023/09/15 05:01:42;;;;;;;0.00;0.00;;;12.40;99.90;;;;;;5094028;28;20184;-68
2023/09/15 05:04:07;;;;;;;0.00;0.00;;;12.30;99.90;;;;;;5094107;28;20534;-68
2023/09/15 05:06:33;;;;;;;0.00;0.00;;;12.40;99.90;;;;;;5094091;28;20233;-68
2023/09/15 05:08:58;;;;;;;0.00;0.00;;;12.30;99.90;;;;;;5094100;28;20181;-68
2023/09/15 05:11:24;;;;;;;0.00;0.00;;;12.30;99.90;;;;;;5094009;28;20222;-69
2023/09/15 05:13:49;;;;;;;0.00;0.00;;;12.30;99.90;;;;;;5094099;28;20850;-69
2023/09/15 05:16:17;;;;;;;0.00;0.00;;;12.30;99.90;;;;;;5093710;28;20180;-69
2023/09/15 05:18:43;;;;;;;0.00;0.00;;;12.30;99.90;;;;;;5093409;28;20179;-68
2023/09/15 05:21:08;;;;;;;0.00;0.00;;;12.30;99.90;;;;;;5093341;28;20180;-69
2023/09/15 05:23:34;;;;;;;0.00;0.00;;;12.30;99.90;;;;;;5093338;28;20631;-69
2023/09/15 05:26:00;;;;;;;0.00;0.00;;;12.30;99.90;;;;;;5093185;28;20698;-69
2023/09/15 05:28:25;;;;;;;0.00;0.00;;;12.30;99.90;;;;;;5093270;28;20186;-68
2023/09/15 05:30:57;;;;;;;0.00;0.00;;;12.40;99.90;;;;;;5093090;28;20263;-68
2023/09/15 05:33:22;;;;;;;0.00;0.00;;;12.40;99.90;;;;;;5088402;28;20512;-68
2023/09/15 05:35:48;;;;;;;0.00;0.00;;;12.50;99.90;;;;;;5072988;28;20195;-68
2023/09/15 05:38:14;;;;;;;0.00;0.00;;;12.50;99.90;;;;;;5072936;28;20189;-68
2023/09/15 05:40:40;;;;;;;0.00;0.00;;;12.60;99.90;;;;;;5090731;28;20199;-68
2023/09/15 05:43:05;;;;;;;0.00;0.00;;;12.60;99.90;;;;;;5092979;28;20627;-68
2023/09/15 05:45:31;;;;;;;0.00;0.00;;;12.60;99.90;;;;;;5093059;28;20187;-68
2023/09/15 05:47:56;;;;;;;0.00;0.00;;;12.60;99.90;;;;;;5092919;28;20176;-68
2023/09/15 05:50:23;;;;;;;0.00;0.00;;;12.70;99.90;;;;;;5092815;28;20638;-69
2023/09/15 05:52:49;;;;;;;0.00;0.00;;;12.70;99.90;;;;;;5092907;28;20252;-68
2023/09/15 05:55:15;;;;;;;0.00;0.00;;;12.80;99.90;;;;;;5092844;28;20164;-69
2023/09/15 05:57:40;;;;;;;0.00;0.00;;;12.90;99.90;;;;;;5092648;28;20621;-70
2023/09/15 06:00:06;;;;;;;0.00;0.00;;;12.90;99.90;;;;;;5092751;28;20251;-70
2023/09/15 06:02:33;;;;;;;0.22;0.20;;;13.00;99.90;;;;;;5092764;28;20531;-69
2023/09/15 06:04:59;;;;;;;0.00;0.00;;;13.10;99.90;;;;;;5092733;28;20176;-70
2023/09/15 06:07:24;;;;;;;0.20;0.20;;;13.20;99.90;;;;;;5092828;28;20176;-69
2023/09/15 06:09:50;;;;;;;0.03;0.03;;;13.40;99.90;;;;;;5092917;28;20191;-69
2023/09/15 06:12:15;;;;;;;0.00;0.00;;;13.60;99.90;;;;;;5092740;28;20251;-70
2023/09/15 06:14:41;;;;;;;0.00;0.00;;;14.00;99.90;;;;;;5092850;28;20199;-71
2023/09/15 06:17:07;;;;;;;0.00;0.00;;;14.40;99.90;;;;;;5092664;28;20255;-70
2023/09/15 06:19:32;;;;;;;0.00;0.00;;;14.80;99.90;;;;;;5091485;28;20654;-70
2023/09/15 06:21:58;;;;;;;0.00;0.00;;;15.20;99.90;;;;;;5092650;28;20684;-69
2023/09/15 06:24:23;;;;;;;0.00;0.00;;;15.60;99.90;;;;;;5092523;28;20187;-71
2023/09/15 06:26:49;;;;;;;0.00;0.00;;;16.10;99.90;;;;;;5092590;28;20565;-70
2023/09/15 06:29:15;;;;;;;0.00;0.00;;;16.50;99.90;;;;;;5092534;28;20553;-72
2023/09/15 06:31:41;;;;;;;0.00;0.00;;;17.10;99.90;;;;;;5092077;28;20243;-69
2023/09/15 06:34:07;;;;;;;0.10;0.10;;;17.60;99.90;;;;;;5092198;28;20205;-69
2023/09/15 06:36:33;;;;;;;0.00;0.00;;;17.90;99.90;;;;;;5092449;28;20183;-69
2023/09/15 06:38:58;;;;;;;0.00;0.00;;;18.20;99.90;;;;;;5092246;28;20651;-69
2023/09/15 06:41:24;;;;;;;0.00;0.00;;;18.50;99.90;;;;;;5091051;28;20564;-69
2023/09/15 06:43:49;;;;;;;0.00;0.00;;;18.80;99.90;;;;;;5092191;28;20251;-69
2023/09/15 06:46:21;;;;;;;0.00;0.00;;;19.10;99.90;;;;;;5092242;28;20176;-69
2023/09/15 06:48:47;;;;;;;0.00;0.00;;;19.40;99.90;;;;;;5092289;28;20164;-68
2023/09/15 06:51:13;;;;;;;0.00;0.00;;;19.70;99.90;;;;;;5092048;28;20279;-69
2023/09/15 06:53:38;;;;;;;0.00;0.00;;;20.00;99.90;;;;;;5092048;28;20579;-69
2023/09/15 06:56:04;;;;;;;0.00;0.00;;;20.30;99.90;;;;;;5091835;28;20210;-69
2023/09/15 06:58:30;;;;;;;0.00;0.00;;;20.60;99.90;;;;;;5092041;28;20172;-69
2023/09/15 07:00:56;;;;;;;0.00;0.00;;;20.90;99.90;;;;;;5091634;28;20215;-69
2023/09/15 07:03:22;;;;;;;0.00;0.00;;;21.30;99.30;;;;;;5091804;28;20190;-69
2023/09/15 07:05:47;;;;;;;0.00;0.00;;;21.50;98.50;;;;;;5091965;28;20225;-69
2023/09/15 07:08:13;;;;;;;0.00;0.00;;;21.70;98.10;;;;;;5091889;28;20176;-69
2023/09/15 07:10:38;;;;;;;0.00;0.00;;;22.10;98.00;;;;;;5091814;28;20589;-69
2023/09/15 07:13:04;;;;;;;0.00;0.00;;;22.40;97.70;;;;;;5091561;28;20199;-69
2023/09/15 07:15:32;;;;;;;0.00;0.00;;;22.80;97.10;;;;;;5091921;28;20535;-69
2023/09/15 07:17:58;;;;;;;0.00;0.00;;;23.10;96.20;;;;;;5091790;28;20172;-69
2023/09/15 07:20:24;;;;;;;0.00;0.00;;;23.40;95.80;;;;;;5091663;28;20199;-69
2023/09/15 07:22:49;;;;;;;0.00;0.00;;;23.70;94.80;;;;;;5091709;28;20207;-69
2023/09/15 07:25:15;;;;;;;0.00;0.00;;;24.00;94.20;;;;;;5091611;28;20650;-69
2023/09/15 07:27:40;;;;;;;0.08;0.08;;;24.20;93.80;;;;;;5091572;28;20266;-69
2023/09/15 07:30:07;;;;;;;0.00;0.00;;;24.40;93.40;;;;;;5091263;28;20178;-69
2023/09/15 07:32:33;;;;;;;0.00;0.00;;;24.60;92.70;;;;;;5091401;28;20254;-69
2023/09/15 07:34:59;;;;;;;0.00;0.00;;;24.80;92.40;;;;;;5091516;28;20718;-69
2023/09/15 07:37:26;;;;;;;0.00;0.00;;;25.00;92.40;;;;;;5091364;28;20275;-69
2023/09/15 07:39:51;;;;;;;0.00;0.00;;;25.30;91.50;;;;;;5090226;28;20258;-68
2023/09/15 07:42:17;;;;;;;0.00;0.00;;;25.50;91.70;;;;;;5091444;28;20210;-69
2023/09/15 07:44:43;;;;;;;0.00;0.00;;;25.80;90.40;;;;;;5091430;28;20636;-69
2023/09/15 07:47:12;;;;;;;0.00;0.00;;;26.00;90.30;;;;;;5091403;28;20168;-69
2023/09/15 07:49:37;;;;;;;0.00;0.00;;;26.30;90.10;;;;;;5091425;28;20792;-69
2023/09/15 07:52:03;;;;;;;0.00;0.00;;;26.30;87.30;;;;;;5091201;28;20302;-69
2023/09/15 07:54:29;;;;;;;0.00;0.00;;;26.40;88.20;;;;;;5091486;28;20515;-69
2023/09/15 07:56:54;;;;;;;0.00;0.00;;;26.50;88.10;;;;;;5091383;28;20510;-69
2023/09/15 07:59:20;;;;;;;0.00;0.00;;;26.80;87.50;;;;;;5091238;28;20204;-69
2023/09/15 08:01:45;;;;;;;0.10;0.10;;;27.10;83.80;;;;;;5091347;28;20176;-69
2023/09/15 08:04:11;;;;;;;0.05;0.05;;;27.30;84.30;;;;;;5091244;28;20221;-70
2023/09/15 08:06:36;;;;;;;0.00;0.00;;;27.40;82.70;;;;;;5091262;28;20182;-70
2023/09/15 08:09:04;;;;;;;0.00;0.00;;;27.50;82.30;;;;;;5091095;28;20176;-69
2023/09/15 08:11:34;;;;;;;0.00;0.00;;;27.50;82.10;;;;;;5091251;28;20273;-69
2023/09/15 08:14:00;;;;;;;0.00;0.00;;;27.60;81.40;;;;;;5093640;28;20647;-70
2023/09/15 08:16:26;;;;;;;0.10;0.10;;;27.70;80.60;;;;;;5095277;28;20180;-70
2023/09/15 08:18:51;;;;;;;0.00;0.00;;;27.80;80.80;;;;;;5095132;28;20172;-70
2023/09/15 08:21:17;;;;;;;0.00;0.00;;;27.90;79.30;;;;;;5095039;28;20179;-70
2023/09/15 08:23:42;;;;;;;0.00;0.00;;;27.90;79.30;;;;;;5094931;28;20164;-69
2023/09/15 08:26:08;;;;;;;0.00;0.00;;;28.00;79.10;;;;;;5094835;28;20201;-69
2023/09/15 08:28:34;;;;;;;0.00;0.00;;;28.00;79.10;;;;;;5094964;28;20264;-69
2023/09/15 08:30:59;;;;;;;0.00;0.00;;;28.00;78.30;;;;;;5094511;28;20591;-70
2023/09/15 08:33:25;;;;;;;0.00;0.00;;;27.90;78.00;;;;;;5089781;28;20579;-69
2023/09/15 08:35:51;;;;;;;0.00;0.00;;;27.90;78.20;;;;;;5074436;28;20185;-69
2023/09/15 08:38:17;;;;;;;0.10;0.00;;;27.70;78.40;;;;;;5074424;28;20204;-69
2023/09/15 08:40:51;;;;;;;0.00;0.00;;;27.80;78.90;;;;;;5092912;28;20168;-69
2023/09/15 08:43:17;;;;;;;0.00;0.00;;;28.00;77.90;;;;;;5094652;28;20207;-70
2023/09/15 08:45:47;;;;;;;0.00;0.00;;;28.00;77.40;;;;;;5094462;28;20620;-69
2023/09/15 08:48:23;;;;;;;0.00;0.00;;;28.10;78.10;;;;;;5093267;28;20187;-69
2023/09/15 08:50:50;;;;;;;0.00;0.00;;;28.20;77.90;;;;;;5094470;28;20334;-70
2023/09/15 08:53:17;;;;;;;0.00;0.00;;;28.30;78.00;;;;;;5094411;28;20647;-69
2023/09/15 08:55:42;;;;;;;0.00;0.00;;;28.50;77.00;;;;;;5092976;28;20176;-70
2023/09/15 08:58:09;;;;;;;0.00;0.00;;;28.60;75.70;;;;;;5094317;28;20255;-71
2023/09/15 09:00:36;;;;;;;0.00;0.00;;;28.60;77.10;;;;;;5094178;28;20183;-70
2023/09/15 09:03:03;;;;;;;0.00;0.00;;;28.70;74.70;;;;;;5093964;28;20191;-70
2023/09/15 09:05:30;;;;;;;0.00;0.00;;;28.60;77.50;;;;;;5094341;28;20186;-70
2023/09/15 09:07:58;;;;;;;0.00;0.00;;;28.70;75.60;;;;;;5094095;28;20172;-70
2023/09/15 09:10:25;;;;;;;0.00;0.00;;;28.70;75.50;;;;;;5094052;28;20173;-70
2023/09/15 09:12:50;;;;;;;0.00;0.00;;;28.80;75.00;;;;;;5094121;28;20659;-70
2023/09/15 09:15:17;;;;;;;0.00;0.00;;;28.70;75.00;;;;;;5094048;28;20198;-70
2023/09/15 09:17:43;;;;;;;0.00;0.00;;;28.70;74.80;;;;;;5093800;28;20173;-70
2023/09/15 09:20:23;;;;;;;0.00;0.00;;;28.60;74.80;;;;;;5093836;28;20176;-70
2023/09/15 09:22:48;;;;;;;0.10;0.10;;;28.50;76.60;;;;;;5093969;28;20300;-70
2023/09/15 09:25:14;;;;;;;0.00;0.00;;;28.50;75.30;;;;;;5093451;28;20208;-70
2023/09/15 09:27:40;;;;;;;0.00;0.00;;;28.60;76.50;;;;;;5093735;28;20276;-70
2023/09/15 09:30:06;;;;;;;0.00;0.00;;;28.50;74.50;;;;;;5093460;28;20176;-70
2023/09/15 09:32:36;;;;;;;0.00;0.00;;;28.50;76.20;;;;;;5093428;28;20220;-70
2023/09/15 09:35:02;;;;;;;0.00;0.00;;;28.60;76.60;;;;;;5093502;28;20172;-70
2023/09/15 09:37:28;;;;;;;0.00;0.00;;;28.80;74.20;;;;;;5093691;28;20202;-70
2023/09/15 09:39:54;;;;;;;0.05;0.05;;;28.80;74.50;;;;;;5093356;28;20172;-70
2023/09/15 09:42:23;;;;;;;0.00;0.00;;;28.60;73.90;;;;;;5093712;28;20230;-70
2023/09/15 09:44:51;;;;;;;0.00;0.00;;;28.50;76.00;;;;;;5093546;28;20173;-70
2023/09/15 09:47:18;;;;;;;0.00;0.00;;;28.60;75.30;;;;;;5093519;28;20237;-70
2023/09/15 09:49:44;;;;;;;0.00;0.00;;;28.80;76.30;;;;;;5093320;28;20176;-70
2023/09/15 09:52:13;;;;;;;0.00;0.00;;;28.80;74.30;;;;;;5093288;28;20244;-70
2023/09/15 09:54:38;;;;;;;0.00;0.00;;;28.90;74.10;;;;;;5093295;28;20169;-70
2023/09/15 09:57:04;;;;;;;0.00;0.00;;;29.00;73.40;;;;;;5092964;28;20180;-71
2023/09/15 09:59:30;;;;;;;0.00;0.00;;;28.90;72.70;;;;;;5093216;28;20168;-70
2023/09/15 10:01:55;;;;;;;0.00;0.00;;;28.80;73.00;;;;;;5093186;28;20176;-69
2023/09/15 10:04:22;;;;;;;0.00;0.00;;;28.70;74.00;;;;;;5093110;28;20192;-70
2023/09/15 10:06:48;;;;;;;0.00;0.00;;;28.80;74.00;;;;;;5093047;28;20214;-70
2023/09/15 10:09:15;;;;;;;0.00;0.00;;;28.90;73.80;;;;;;5092954;28;20188;-70
2023/09/15 10:11:41;;;;;;;0.00;0.00;;;29.00;72.70;;;;;;5092817;28;20251;-70
2023/09/15 10:14:09;;;;;;;0.00;0.00;;;29.00;73.10;;;;;;5092904;28;20544;-70
2023/09/15 10:16:35;;;;;;;0.00;0.00;;;29.00;72.50;;;;;;5092857;28;20188;-69
2023/09/15 10:19:03;;;;;;;0.00;0.00;;;29.10;72.20;;;;;;5092600;28;20172;-69
2023/09/15 10:21:32;;;;;;;0.00;0.00;;;29.10;72.60;;;;;;5092802;28;20616;-70
2023/09/15 10:24:06;;;;;;;0.00;0.00;;;29.30;71.70;;;;;;5092568;28;20635;-70
2023/09/15 10:26:32;;;;;;;0.00;0.00;;;29.40;71.90;;;;;;5092774;28;20191;-69
2023/09/15 10:29:01;;;;;;;0.00;0.00;;;29.20;70.20;;;;;;5092687;28;20176;-69
2023/09/15 10:31:29;;;;;;;0.00;0.00;;;29.20;70.30;;;;;;5092339;28;20246;-69
2023/09/15 10:33:54;;;;;;;0.00;0.00;;;29.20;71.10;;;;;;5092438;28;20271;-69
2023/09/15 10:36:21;;;;;;;0.00;0.00;;;29.00;70.60;;;;;;5091785;28;20211;-69
2023/09/15 10:38:47;;;;;;;0.00;0.00;;;28.80;70.00;;;;;;5092337;28;20164;-69
2023/09/15 10:41:25;;;;;;;0.00;0.00;;;28.70;70.50;;;;;;5092427;28;20171;-69
2023/09/15 10:43:50;;;;;;;0.00;0.00;;;28.60;70.80;;;;;;5092458;28;20210;-69
2023/09/15 10:46:16;;;;;;;0.00;0.00;;;28.70;71.70;;;;;;5092292;28;20199;-70
2023/09/15 10:48:46;;;;;;;0.00;0.00;;;28.70;72.10;;;;;;5092189;28;20215;-70
2023/09/15 10:51:17;;;;;;;0.00;0.00;;;28.70;71.80;;;;;;5092095;28;20192;-69
2023/09/15 10:53:47;;;;;;;0.00;0.00;;;28.70;71.50;;;;;;5092155;28;20188;-70
2023/09/15 10:56:14;;;;;;;0.00;0.00;;;28.70;72.30;;;;;;5092105;28;20172;-70
2023/09/15 10:58:44;;;;;;;0.00;0.00;;;28.70;74.80;;;;;;5092215;28;20176;-70
2023/09/15 11:01:10;;;;;;;0.00;0.00;;;29.00;72.50;;;;;;5092001;28;20203;-70
2023/09/15 11:03:37;;;;;;;0.00;0.00;;;29.00;71.50;;;;;;5091947;28;20579;-69
2023/09/15 11:06:05;;;;;;;0.00;0.00;;;29.00;71.30;;;;;;5091666;28;20258;-70
2023/09/15 11:08:31;;;;;;;0.00;0.00;;;29.00;71.10;;;;;;5091977;28;20190;-69
2023/09/15 11:11:04;;;;;;;0.00;0.00;;;29.00;71.50;;;;;;5091723;28;20212;-69
2023/09/15 11:13:30;;;;;;;0.00;0.00;;;28.90;71.10;;;;;;5091936;28;20176;-70
2023/09/15 11:15:56;;;;;;;0.00;0.00;;;28.80;72.00;;;;;;5091741;28;20176;-69
2023/09/15 11:18:21;;;;;;;0.00;0.00;;;28.70;71.60;;;;;;5091634;28;20179;-69
2023/09/15 11:20:47;;;;;;;0.00;0.00;;;28.90;72.20;;;;;;5091648;28;20175;-70
2023/09/15 11:23:17;;;;;;;0.00;0.00;;;28.90;72.00;;;;;;5091650;28;20254;-70
2023/09/15 11:25:42;;;;;;;0.00;0.00;;;28.90;72.30;;;;;;5091656;28;20176;-69
2023/09/15 11:28:13;;;;;;;0.00;0.00;;;28.80;71.10;;;;;;5091628;28;20538;-69
2023/09/15 11:30:41;;;;;;;0.00;0.00;;;28.70;72.10;;;;;;5091369;28;20228;-69
2023/09/15 11:33:07;;;;;;;0.00;0.00;;;28.70;71.90;;;;;;5091385;28;20240;-70
2023/09/15 11:35:34;;;;;;;0.00;0.00;;;28.40;72.50;;;;;;5091493;28;20165;-69
2023/09/15 11:38:00;;;;;;;0.00;0.00;;;28.30;72.50;;;;;;5091492;28;20179;-69
2023/09/15 11:40:26;;;;;;;0.00;0.00;;;28.10;72.00;;;;;;5091529;28;20497;-70
2023/09/15 11:43:01;;;;;;;0.00;0.00;;;28.10;72.50;;;;;;5091572;28;20271;-69
2023/09/15 11:45:30;;;;;;;0.00;0.00;;;28.00;72.60;;;;;;5091579;28;20677;-71
2023/09/15 11:47:57;;;;;;;0.00;0.00;;;28.00;72.50;;;;;;5093926;28;20180;-70
2023/09/15 11:50:25;;;;;;;0.00;0.00;;;28.10;72.40;;;;;;5095258;28;20180;-70
2023/09/15 11:52:52;;;;;;;0.00;0.00;;;28.20;72.90;;;;;;5095612;28;20218;-70
2023/09/15 11:55:20;;;;;;;0.00;0.00;;;28.30;72.60;;;;;;5095394;28;20548;-70
2023/09/15 11:57:46;;;;;;;0.00;0.00;;;28.30;71.50;;;;;;5095498;28;20204;-70
2023/09/15 12:00:16;;;;;;;0.00;0.00;;;28.30;71.70;;;;;;5095379;28;20200;-70
2023/09/15 12:02:44;;;;;;;0.00;0.00;;;28.40;70.90;;;;;;5095301;28;20172;-70
2023/09/15 12:05:10;;;;;;;0.00;0.00;;;28.60;70.70;;;;;;5095285;28;20176;-71
2023/09/15 12:07:36;;;;;;;0.43;0.30;;;28.80;71.40;;;;;;5095286;28;20654;-70
2023/09/15 12:10:03;;;;;;;0.00;0.00;;;28.90;69.30;;;;;;5095015;28;20212;-70
2023/09/15 12:12:29;;;;;;;0.00;0.00;;;29.00;69.40;;;;;;5095101;28;20556;-71
2023/09/15 12:15:00;;;;;;;0.00;0.00;;;28.90;68.70;;;;;;5095138;28;20229;-70
2023/09/15 12:17:27;;;;;;;0.00;0.00;;;28.90;69.20;;;;;;5095270;28;20263;-71
2023/09/15 12:20:00;;;;;;;0.00;0.00;;;28.90;69.20;;;;;;5095074;28;20179;-70
2023/09/15 12:22:32;;;;;;;0.00;0.00;;;28.90;69.30;;;;;;5095067;28;20171;-70
2023/09/15 12:25:02;;;;;;;0.00;0.00;;;28.80;69.20;;;;;;5094986;28;20241;-70
2023/09/15 12:27:29;;;;;;;0.00;0.00;;;28.70;69.20;;;;;;5095022;28;20173;-70
2023/09/15 12:29:57;;;;;;;0.00;0.00;;;28.40;70.10;;;;;;5094667;28;20269;-69
2023/09/15 12:32:26;;;;;;;0.00;0.00;;;28.40;71.20;;;;;;5094484;28;20223;-70
2023/09/15 12:34:55;;;;;;;0.00;0.00;;;28.40;71.10;;;;;;5094664;28;20176;-70
2023/09/15 12:37:21;;;;;;;0.20;0.00;;;28.40;70.90;;;;;;5094662;28;20180;-70
2023/09/15 12:39:46;;;;;;;0.00;0.00;;;28.30;71.60;;;;;;5094745;28;20233;-70
2023/09/15 12:42:13;;;;;;;0.00;0.00;;;28.20;70.70;;;;;;5094570;28;20215;-70
2023/09/15 12:44:39;;;;;;;0.00;0.00;;;28.20;70.70;;;;;;5094630;28;20263;-70
2023/09/15 12:47:05;;;;;;;0.20;0.20;;;28.20;72.10;;;;;;5094375;28;20267;-71